Time;durP1;ratioP1;P1;durP2;ratioP2;P2;SDS_P1;SDS_P2;PMS_P1;PMS_P2;Temp;Humidity;BMP_temperature;BMP_pressure;BME280_temperature;BME280_humidity;BME280_pressure;Samples;Min_cycle;Max_cycle;Signal;HPM_P1;HPM_P2
2022/10/18 00:00:21;;;;;;;13.50;11.50;;;15.70;99.90;;;;;;5092945;28;20311;-65
2022/10/18 00:02:49;;;;;;;12.20;10.20;;;15.70;99.90;;;;;;5094216;28;20235;-64
2022/10/18 00:05:18;;;;;;;15.20;10.53;;;15.70;99.90;;;;;;5075956;28;20672;-64
2022/10/18 00:07:46;;;;;;;15.87;11.00;;;15.60;99.90;;;;;;5094128;28;20188;-64
2022/10/18 00:10:14;;;;;;;15.50;10.23;;;15.60;99.90;;;;;;5093972;28;20660;-65
2022/10/18 00:12:42;;;;;;;16.97;11.00;;;15.60;99.90;;;;;;5092700;28;20232;-65
2022/10/18 00:15:12;;;;;;;12.23;9.90;;;15.70;99.90;;;;;;5093979;28;20235;-65
2022/10/18 00:17:40;;;;;;;15.00;10.57;;;15.60;99.90;;;;;;5093880;28;20201;-65
2022/10/18 00:20:10;;;;;;;12.67;10.97;;;15.70;99.90;;;;;;5094147;28;20248;-64
2022/10/18 00:22:40;;;;;;;14.13;10.43;;;15.60;99.90;;;;;;5092554;28;20197;-64
2022/10/18 00:25:09;;;;;;;15.03;10.83;;;15.60;99.90;;;;;;5094048;28;20187;-64
2022/10/18 00:27:38;;;;;;;16.40;10.93;;;15.60;99.90;;;;;;5093333;28;20675;-65
2022/10/18 00:30:07;;;;;;;13.70;11.20;;;15.60;99.90;;;;;;5093681;28;20187;-64
2022/10/18 00:32:38;;;;;;;15.13;10.47;;;15.60;99.90;;;;;;5093647;28;20196;-65
2022/10/18 00:35:07;;;;;;;18.70;12.07;;;15.60;99.90;;;;;;5094181;28;20707;-65
2022/10/18 00:37:36;;;;;;;19.47;11.67;;;15.60;99.90;;;;;;5093567;28;20653;-65
2022/10/18 00:40:05;;;;;;;19.27;11.40;;;15.50;99.90;;;;;;5093561;28;20195;-65
2022/10/18 00:42:37;;;;;;;21.57;12.17;;;15.50;99.90;;;;;;5093455;28;20193;-65
2022/10/18 00:45:15;;;;;;;18.03;12.47;;;15.50;99.90;;;;;;5093452;28;20204;-65
2022/10/18 00:47:51;;;;;;;16.73;12.77;;;15.50;99.90;;;;;;5093384;28;20559;-65
2022/10/18 00:50:21;;;;;;;20.63;12.57;;;15.60;99.90;;;;;;5093785;28;20204;-65
2022/10/18 00:52:54;;;;;;;17.20;13.27;;;15.60;99.90;;;;;;5093345;28;20577;-65
2022/10/18 00:55:22;;;;;;;20.27;12.07;;;15.60;99.90;;;;;;5093389;28;20722;-64
2022/10/18 00:57:51;;;;;;;18.43;12.77;;;15.60;99.90;;;;;;5093582;28;20230;-65
2022/10/18 01:00:25;;;;;;;21.83;12.00;;;15.60;99.90;;;;;;5092144;28;20786;-64
2022/10/18 01:02:54;;;;;;;15.70;12.10;;;15.60;99.90;;;;;;5092079;28;20189;-65
2022/10/18 01:10:24;;;;;;;17.03;11.83;;;15.60;99.90;;;;;;5093363;28;20259;-65
2022/10/18 01:13:03;;;;;;;16.37;12.03;;;15.50;99.90;;;;;;5093580;28;20176;-65
2022/10/18 01:15:36;;;;;;;13.63;11.00;;;15.50;99.90;;;;;;5091966;28;20206;-64
2022/10/18 01:18:16;;;;;;;13.13;10.57;;;15.50;99.90;;;;;;5092046;28;20547;-65
2022/10/18 01:21:13;;;;;;;14.10;11.00;;;15.50;99.90;;;;;;5093238;28;20215;-64
2022/10/18 01:24:01;;;;;;;15.47;11.50;;;15.50;99.90;;;;;;5092138;28;20209;-65
2022/10/18 01:26:44;;;;;;;22.60;11.77;;;15.40;99.90;;;;;;5093391;28;20180;-65
2022/10/18 01:29:26;;;;;;;15.63;10.60;;;15.40;99.90;;;;;;5093153;28;20192;-65
2022/10/18 01:31:59;;;;;;;13.77;10.47;;;15.40;99.90;;;;;;5093439;28;20264;-64
2022/10/18 01:34:32;;;;;;;15.90;12.03;;;15.40;99.90;;;;;;5091875;28;20197;-65
2022/10/18 01:37:03;;;;;;;18.77;12.23;;;15.40;99.90;;;;;;5093320;28;20569;-65
2022/10/18 01:39:35;;;;;;;21.37;12.37;;;15.40;99.90;;;;;;5093353;28;20548;-65
2022/10/18 01:42:06;;;;;;;22.90;12.87;;;15.40;99.90;;;;;;5093060;28;20199;-64
2022/10/18 01:44:36;;;;;;;20.07;11.43;;;15.40;99.90;;;;;;5093852;28;20201;-64
2022/10/18 01:47:09;;;;;;;18.57;11.60;;;15.40;99.90;;;;;;5092897;28;20205;-64
2022/10/18 01:49:37;;;;;;;17.67;12.30;;;15.40;99.90;;;;;;5092969;28;20198;-64
2022/10/18 01:52:06;;;;;;;16.83;11.70;;;15.40;99.90;;;;;;5092927;28;20217;-64
2022/10/18 01:54:43;;;;;;;15.80;11.70;;;15.40;99.90;;;;;;5092943;28;20642;-64
2022/10/18 01:57:21;;;;;;;15.20;11.33;;;15.40;99.90;;;;;;5091377;28;20234;-65
2022/10/18 01:59:58;;;;;;;18.17;12.60;;;15.40;99.90;;;;;;5096622;28;20202;-64
2022/10/18 02:02:42;;;;;;;13.77;10.90;;;15.40;99.90;;;;;;5096533;28;20220;-65
2022/10/18 02:05:22;;;;;;;22.00;10.97;;;15.30;99.90;;;;;;5097008;28;20189;-65
2022/10/18 02:07:57;;;;;;;20.33;12.47;;;15.40;99.90;;;;;;5096387;28;20194;-64
2022/10/18 02:10:49;;;;;;;17.60;12.37;;;15.40;99.90;;;;;;5095347;28;20194;-64
2022/10/18 02:13:21;;;;;;;19.27;12.30;;;15.40;99.90;;;;;;5095171;28;20552;-64
2022/10/18 02:15:54;;;;;;;17.77;12.03;;;15.40;99.90;;;;;;5096974;28;20228;-64
2022/10/18 02:18:30;;;;;;;21.90;11.60;;;15.40;99.90;;;;;;5095282;28;20185;-64
2022/10/18 02:21:00;;;;;;;16.97;12.03;;;15.40;99.90;;;;;;5096487;28;20639;-65
2022/10/18 02:23:29;;;;;;;22.07;12.87;;;15.40;99.90;;;;;;5096051;28;20280;-64
2022/10/18 02:25:57;;;;;;;20.20;13.20;;;15.40;99.90;;;;;;5096335;28;20282;-64
2022/10/18 02:28:25;;;;;;;19.20;13.20;;;15.40;99.90;;;;;;5094724;28;20197;-64
2022/10/18 02:31:01;;;;;;;18.83;12.33;;;15.40;99.90;;;;;;5095948;28;20200;-64
2022/10/18 02:33:37;;;;;;;28.17;14.57;;;15.40;99.90;;;;;;5096422;28;20201;-65
2022/10/18 02:36:13;;;;;;;21.87;14.07;;;15.40;99.90;;;;;;5095739;28;20214;-65
2022/10/18 02:38:43;;;;;;;28.37;16.63;;;15.40;99.90;;;;;;5095815;28;20209;-65
2022/10/18 02:41:12;;;;;;;30.03;17.80;;;15.40;99.90;;;;;;5095781;28;20218;-65
2022/10/18 02:43:40;;;;;;;28.33;15.70;;;15.40;99.90;;;;;;5095735;28;20221;-65
2022/10/18 02:46:08;;;;;;;30.13;17.70;;;15.40;99.90;;;;;;5095609;28;20514;-65
2022/10/18 02:53:16;;;;;;;36.73;20.30;;;15.40;99.90;;;;;;5095636;28;20161;-64
2022/10/18 02:55:45;;;;;;;34.13;20.13;;;15.40;99.90;;;;;;5095625;28;20194;-65
2022/10/18 02:58:13;;;;;;;37.03;21.43;;;15.40;99.90;;;;;;5095117;28;20226;-65
2022/10/18 03:00:42;;;;;;;37.83;20.57;;;15.40;99.90;;;;;;5095354;28;20194;-64
2022/10/18 03:03:10;;;;;;;36.73;20.87;;;15.40;99.90;;;;;;5095560;28;20193;-64
2022/10/18 03:05:38;;;;;;;36.37;20.50;;;15.40;99.90;;;;;;5095694;28;20191;-64
2022/10/18 03:08:06;;;;;;;33.00;19.77;;;15.40;99.90;;;;;;5095212;28;20190;-64
2022/10/18 03:10:36;;;;;;;33.77;20.30;;;15.40;99.90;;;;;;5095133;28;20199;-65
2022/10/18 03:13:04;;;;;;;34.00;20.63;;;15.40;99.90;;;;;;5095207;28;20210;-65
2022/10/18 03:15:32;;;;;;;30.47;18.87;;;15.40;99.90;;;;;;5095083;28;20198;-65
2022/10/18 03:18:01;;;;;;;31.77;19.40;;;15.40;99.90;;;;;;5094886;28;20297;-64
2022/10/18 03:20:29;;;;;;;30.17;18.57;;;15.40;99.90;;;;;;5094527;28;20243;-64
2022/10/18 03:22:58;;;;;;;33.10;20.07;;;15.40;99.90;;;;;;5094880;28;20194;-64
2022/10/18 03:25:26;;;;;;;39.57;23.07;;;15.40;99.90;;;;;;5095139;28;20190;-64
2022/10/18 03:27:55;;;;;;;36.47;21.43;;;15.40;99.90;;;;;;5094796;28;20564;-64
2022/10/18 03:30:27;;;;;;;37.00;21.93;;;15.40;99.90;;;;;;5094799;28;20186;-64
2022/10/18 03:32:55;;;;;;;40.83;21.23;;;15.40;99.90;;;;;;5093795;28;20193;-65
2022/10/18 03:35:23;;;;;;;24.90;18.20;;;15.40;99.90;;;;;;5094694;28;20201;-64
2022/10/18 03:37:52;;;;;;;33.13;20.33;;;15.30;99.90;;;;;;5094821;28;20698;-64
2022/10/18 03:40:21;;;;;;;29.37;18.47;;;15.30;99.90;;;;;;5094743;28;20193;-64
2022/10/18 03:42:49;;;;;;;37.80;22.73;;;15.30;99.90;;;;;;5094512;28;20196;-64
2022/10/18 03:45:18;;;;;;;34.77;20.90;;;15.30;99.90;;;;;;5095348;28;20197;-64
2022/10/18 03:47:47;;;;;;;34.53;21.07;;;15.30;99.90;;;;;;5094802;28;20197;-64
2022/10/18 03:50:15;;;;;;;31.47;19.20;;;15.30;99.90;;;;;;5094410;28;20185;-64
2022/10/18 03:52:44;;;;;;;30.27;18.80;;;15.30;99.90;;;;;;5093083;28;20219;-64
2022/10/18 03:55:12;;;;;;;27.80;18.60;;;15.20;99.90;;;;;;5093141;28;20240;-64
2022/10/18 03:57:43;;;;;;;31.03;20.20;;;15.20;99.90;;;;;;5092959;28;20210;-65
2022/10/18 04:00:12;;;;;;;30.13;18.07;;;15.20;99.90;;;;;;5094231;28;20641;-64
2022/10/18 04:02:42;;;;;;;34.17;20.07;;;15.20;99.90;;;;;;5094440;28;20283;-65
2022/10/18 04:05:10;;;;;;;33.33;19.93;;;15.20;99.90;;;;;;5092930;28;20204;-64
2022/10/18 04:07:38;;;;;;;27.57;18.00;;;15.10;99.90;;;;;;5094072;28;20229;-65
2022/10/18 04:10:08;;;;;;;28.90;17.80;;;15.10;99.90;;;;;;5094908;28;20194;-64
2022/10/18 04:12:36;;;;;;;31.90;17.97;;;15.10;99.90;;;;;;5092783;28;20194;-64
2022/10/18 04:15:05;;;;;;;29.40;18.80;;;15.10;99.90;;;;;;5092752;28;20193;-65
2022/10/18 04:17:33;;;;;;;27.57;18.83;;;15.10;99.90;;;;;;5094087;28;20653;-64
2022/10/18 04:20:04;;;;;;;35.50;20.93;;;15.10;99.90;;;;;;5093916;28;20194;-64
2022/10/18 04:22:32;;;;;;;28.30;20.27;;;15.10;99.90;;;;;;5093442;28;20182;-65
2022/10/18 04:25:00;;;;;;;31.73;19.97;;;15.10;99.90;;;;;;5092550;28;20191;-64
2022/10/18 04:27:29;;;;;;;39.87;21.07;;;15.00;99.90;;;;;;5093654;28;20272;-64
2022/10/18 04:29:57;;;;;;;35.57;19.13;;;15.10;99.90;;;;;;5093658;28;20729;-64
2022/10/18 04:32:28;;;;;;;28.60;18.53;;;15.00;99.90;;;;;;5092411;28;20268;-64
2022/10/18 04:34:56;;;;;;;37.83;19.47;;;15.00;99.90;;;;;;5093671;28;20552;-64
2022/10/18 04:37:25;;;;;;;28.37;18.40;;;15.00;99.90;;;;;;5093581;28;20535;-65
2022/10/18 04:39:54;;;;;;;31.87;19.53;;;15.00;99.90;;;;;;5093869;28;20239;-64
2022/10/18 04:42:22;;;;;;;33.30;20.17;;;15.00;99.90;;;;;;5093996;28;20658;-65
2022/10/18 04:44:51;;;;;;;28.00;18.70;;;15.00;99.90;;;;;;5092263;28;20194;-64
2022/10/18 04:47:19;;;;;;;29.87;18.73;;;14.90;99.90;;;;;;5092241;28;20181;-64
2022/10/18 04:49:48;;;;;;;26.33;18.37;;;14.90;99.90;;;;;;5093369;28;20209;-65
2022/10/18 04:52:16;;;;;;;32.53;21.20;;;14.90;99.90;;;;;;5093922;28;20209;-64
2022/10/18 04:54:45;;;;;;;30.07;20.27;;;14.90;99.90;;;;;;5092183;28;20195;-64
2022/10/18 04:57:14;;;;;;;30.13;18.30;;;14.90;99.90;;;;;;5093162;28;20235;-65
2022/10/18 04:59:45;;;;;;;29.50;18.83;;;14.90;99.90;;;;;;5093410;28;20209;-64
2022/10/18 05:02:13;;;;;;;31.93;19.20;;;14.90;99.90;;;;;;5093427;28;20184;-65
2022/10/18 05:04:42;;;;;;;31.23;20.53;;;14.90;99.90;;;;;;5093303;28;20196;-64
2022/10/18 05:07:10;;;;;;;36.60;19.17;;;14.80;99.90;;;;;;5092143;28;20190;-64
2022/10/18 05:09:38;;;;;;;31.53;18.17;;;14.80;99.90;;;;;;5093311;28;20200;-64
2022/10/18 05:12:08;;;;;;;29.20;18.40;;;14.80;99.90;;;;;;5092039;28;20196;-65
2022/10/18 05:14:36;;;;;;;32.30;18.97;;;14.80;99.90;;;;;;5092054;28;20542;-65
2022/10/18 05:17:04;;;;;;;33.77;19.67;;;14.70;99.90;;;;;;5092006;28;20523;-64
2022/10/18 05:19:33;;;;;;;31.43;19.73;;;14.70;99.90;;;;;;5093228;28;20549;-64
2022/10/18 05:22:01;;;;;;;27.17;18.47;;;14.60;99.90;;;;;;5093146;28;20187;-65
2022/10/18 05:24:29;;;;;;;34.23;19.87;;;14.60;99.90;;;;;;5091953;28;20197;-65
2022/10/18 05:26:58;;;;;;;29.97;19.03;;;14.50;99.90;;;;;;5093308;28;20196;-64
2022/10/18 05:29:30;;;;;;;35.10;19.63;;;14.50;99.90;;;;;;5093135;28;20273;-64
2022/10/18 05:31:58;;;;;;;27.13;18.67;;;14.40;99.90;;;;;;5093139;28;20196;-64
2022/10/18 05:34:30;;;;;;;30.87;18.40;;;14.40;99.90;;;;;;5095748;28;20545;-64
2022/10/18 05:36:59;;;;;;;31.70;19.93;;;14.40;99.90;;;;;;5096242;28;20188;-64
2022/10/18 05:39:27;;;;;;;30.30;19.57;;;14.30;99.90;;;;;;5096803;28;20697;-64
2022/10/18 05:41:56;;;;;;;29.90;19.13;;;14.30;99.90;;;;;;5096909;28;20197;-64
2022/10/18 05:44:25;;;;;;;28.03;19.03;;;14.30;99.90;;;;;;5096845;28;20199;-64
2022/10/18 05:46:54;;;;;;;28.70;18.53;;;14.20;99.90;;;;;;5096049;28;20199;-64
2022/10/18 05:49:23;;;;;;;28.47;18.00;;;14.10;99.90;;;;;;5096760;28;20184;-64
2022/10/18 05:51:51;;;;;;;34.50;20.13;;;14.10;99.90;;;;;;5097163;28;20215;-64
2022/10/18 05:54:20;;;;;;;36.30;20.47;;;14.00;99.90;;;;;;5096564;28;20663;-64
2022/10/18 05:56:48;;;;;;;38.33;21.73;;;14.00;99.90;;;;;;5096866;28;20302;-64
2022/10/18 05:59:18;;;;;;;33.23;20.30;;;14.00;99.90;;;;;;5096291;28;20576;-64
2022/10/18 06:01:47;;;;;;;32.53;20.07;;;13.90;99.90;;;;;;5096648;28;20223;-65
2022/10/18 06:04:16;;;;;;;31.43;20.10;;;13.90;99.90;;;;;;5096358;28;20199;-64
2022/10/18 06:06:45;;;;;;;32.77;19.73;;;13.90;99.90;;;;;;5096376;28;20252;-64
2022/10/18 06:09:13;;;;;;;29.47;18.07;;;13.80;99.90;;;;;;5096579;28;20211;-64
2022/10/18 06:11:41;;;;;;;29.87;18.77;;;13.80;99.90;;;;;;5095678;28;20192;-63
2022/10/18 06:14:10;;;;;;;27.97;18.07;;;13.70;99.90;;;;;;5096075;28;20701;-64
2022/10/18 06:16:38;;;;;;;40.20;20.53;;;13.70;99.90;;;;;;5095448;28;20512;-65
2022/10/18 06:19:06;;;;;;;36.53;20.47;;;13.70;99.90;;;;;;5095952;28;20208;-64
2022/10/18 06:21:36;;;;;;;31.43;19.60;;;13.70;99.90;;;;;;5096105;28;20650;-65
2022/10/18 06:24:04;;;;;;;33.10;19.93;;;13.70;99.90;;;;;;5096307;28;20191;-64
2022/10/18 06:26:32;;;;;;;30.47;19.67;;;13.60;99.90;;;;;;5095928;28;20676;-64
2022/10/18 06:29:00;;;;;;;35.13;20.33;;;13.60;99.90;;;;;;5096002;28;20553;-64
2022/10/18 06:31:29;;;;;;;33.87;19.90;;;13.50;99.90;;;;;;5094716;28;20191;-64
2022/10/18 06:33:57;;;;;;;36.10;20.17;;;13.50;99.90;;;;;;5095909;28;20191;-64
2022/10/18 06:36:26;;;;;;;38.37;22.63;;;13.50;99.90;;;;;;5094589;28;20199;-63
2022/10/18 06:38:56;;;;;;;36.30;22.40;;;13.50;99.90;;;;;;5095684;28;20293;-64
2022/10/18 06:41:27;;;;;;;39.13;21.27;;;13.50;99.90;;;;;;5095710;28;20202;-63
2022/10/18 06:43:57;;;;;;;34.97;21.50;;;13.50;99.90;;;;;;5094760;28;20215;-64
2022/10/18 06:46:26;;;;;;;36.67;21.03;;;13.40;99.90;;;;;;5094660;28;20188;-63
2022/10/18 06:48:55;;;;;;;33.73;20.77;;;13.40;99.90;;;;;;5095620;28;20191;-64
2022/10/18 06:51:23;;;;;;;33.43;20.67;;;13.40;99.90;;;;;;5078043;28;20192;-63
2022/10/18 06:53:51;;;;;;;27.40;19.27;;;13.30;99.90;;;;;;5096166;28;20195;-65
2022/10/18 06:56:41;;;;;;;28.33;18.90;;;13.30;99.90;;;;;;5095145;28;20191;-64
2022/10/18 06:59:09;;;;;;;31.33;19.70;;;13.30;99.90;;;;;;5094998;28;20209;-64
2022/10/18 07:01:37;;;;;;;30.83;19.33;;;13.30;99.90;;;;;;5095733;28;20191;-65
2022/10/18 07:04:06;;;;;;;30.90;20.07;;;13.20;99.90;;;;;;5095250;28;20187;-64
2022/10/18 07:06:34;;;;;;;28.43;19.00;;;13.30;99.90;;;;;;5094888;28;20193;-64
2022/10/18 07:09:02;;;;;;;27.87;18.30;;;13.30;99.90;;;;;;5094863;28;20190;-64
2022/10/18 07:11:31;;;;;;;29.57;18.80;;;13.30;99.90;;;;;;5094979;28;20202;-64
2022/10/18 07:14:03;;;;;;;28.80;20.23;;;13.40;99.90;;;;;;5095011;28;20211;-64
2022/10/18 07:16:33;;;;;;;35.60;20.67;;;13.50;99.90;;;;;;5095135;28;20670;-64
2022/10/18 07:19:01;;;;;;;36.37;23.50;;;13.60;99.90;;;;;;5094912;28;20218;-64
2022/10/18 07:21:30;;;;;;;38.50;22.10;;;13.70;99.90;;;;;;5094939;28;20192;-64
2022/10/18 07:23:58;;;;;;;29.57;20.40;;;13.70;99.90;;;;;;5095163;28;20187;-65
2022/10/18 07:26:28;;;;;;;32.77;20.53;;;13.80;99.90;;;;;;5094929;28;20282;-64
2022/10/18 07:28:59;;;;;;;33.30;20.40;;;13.90;99.90;;;;;;5095179;28;20187;-65
2022/10/18 07:31:29;;;;;;;32.87;20.43;;;13.90;99.90;;;;;;5093629;28;20249;-64
2022/10/18 07:33:57;;;;;;;34.83;21.83;;;13.90;99.90;;;;;;5093858;28;20194;-65
2022/10/18 07:36:26;;;;;;;44.53;26.77;;;14.10;99.90;;;;;;5094647;28;20191;-64
2022/10/18 07:38:54;;;;;;;51.67;27.70;;;14.20;99.90;;;;;;5094519;28;20219;-64
2022/10/18 07:41:23;;;;;;;43.87;25.77;;;14.30;99.90;;;;;;5094613;28;20195;-65
2022/10/18 07:43:52;;;;;;;44.83;26.97;;;14.40;99.90;;;;;;5094509;28;20199;-65
2022/10/18 07:46:22;;;;;;;53.63;26.67;;;14.50;99.90;;;;;;5094516;28;20187;-65
2022/10/18 07:48:52;;;;;;;39.20;25.33;;;14.50;99.90;;;;;;5095026;28;20206;-64
2022/10/18 07:51:21;;;;;;;45.63;25.97;;;14.70;99.90;;;;;;5094432;28;20195;-64
2022/10/18 07:53:49;;;;;;;42.60;25.97;;;14.80;99.90;;;;;;5094904;28;20649;-65
2022/10/18 07:56:20;;;;;;;50.40;26.73;;;14.80;99.90;;;;;;5093648;28;20187;-64
2022/10/18 07:58:51;;;;;;;47.27;25.53;;;14.90;99.90;;;;;;5094145;28;20226;-65
2022/10/18 08:01:22;;;;;;;44.83;25.30;;;15.00;99.90;;;;;;5094562;28;20234;-64
2022/10/18 08:03:53;;;;;;;34.23;22.67;;;15.10;99.90;;;;;;5094265;28;20599;-64
2022/10/18 08:06:22;;;;;;;34.37;22.47;;;15.20;99.90;;;;;;5094713;28;20185;-64
2022/10/18 08:08:55;;;;;;;40.83;22.63;;;15.20;99.90;;;;;;5094422;28;20191;-65
2022/10/18 08:11:25;;;;;;;34.97;21.60;;;15.30;99.90;;;;;;5094093;28;20217;-65
2022/10/18 08:13:54;;;;;;;40.20;23.73;;;15.40;99.90;;;;;;5075845;28;20221;-65
2022/10/18 08:16:24;;;;;;;36.33;22.90;;;15.50;99.90;;;;;;5093914;28;20186;-65
2022/10/18 08:18:54;;;;;;;35.33;21.97;;;15.60;99.90;;;;;;5093848;28;20639;-65
2022/10/18 08:21:22;;;;;;;32.77;20.93;;;15.70;99.90;;;;;;5093891;28;20548;-66
2022/10/18 08:23:52;;;;;;;37.07;20.27;;;15.80;99.90;;;;;;5093893;28;20218;-66
2022/10/18 08:26:22;;;;;;;34.70;17.27;;;16.00;99.90;;;;;;5093866;28;20230;-64
2022/10/18 08:28:51;;;;;;;29.40;16.77;;;16.10;99.90;;;;;;5094119;28;20712;-65
2022/10/18 08:31:39;;;;;;;28.33;15.80;;;16.10;99.90;;;;;;5092511;28;20220;-65
2022/10/18 08:34:08;;;;;;;28.33;15.17;;;16.10;99.90;;;;;;5093913;28;20194;-65
2022/10/18 08:36:37;;;;;;;25.60;14.03;;;16.10;99.90;;;;;;5093590;28;20199;-65
2022/10/18 08:39:05;;;;;;;29.73;14.57;;;16.20;99.90;;;;;;5093498;28;20220;-64
2022/10/18 08:42:02;;;;;;;25.40;12.77;;;16.20;99.90;;;;;;5093608;28;20181;-65
2022/10/18 08:44:32;;;;;;;22.83;12.53;;;16.30;99.90;;;;;;5075530;28;20194;-65
2022/10/18 08:47:04;;;;;;;25.00;11.47;;;16.30;99.90;;;;;;5093560;28;20223;-65
2022/10/18 08:49:40;;;;;;;28.27;12.10;;;16.40;99.90;;;;;;5093818;28;20190;-65
2022/10/18 08:52:21;;;;;;;20.40;11.73;;;16.50;99.90;;;;;;5094038;28;20191;-65
2022/10/18 08:54:58;;;;;;;26.60;11.07;;;16.60;99.90;;;;;;5093752;28;20180;-65
2022/10/18 08:57:27;;;;;;;24.27;11.93;;;16.70;99.90;;;;;;5093427;28;20264;-65
2022/10/18 08:59:55;;;;;;;23.23;11.13;;;16.80;99.90;;;;;;5093354;28;20264;-65
2022/10/18 09:02:39;;;;;;;19.60;10.60;;;16.90;99.90;;;;;;5092162;28;20657;-65
2022/10/18 09:05:19;;;;;;;22.53;11.23;;;17.00;99.90;;;;;;5093253;28;20196;-65
2022/10/18 09:08:18;;;;;;;23.37;10.70;;;17.10;99.90;;;;;;5095406;28;20190;-66
2022/10/18 09:10:58;;;;;;;18.83;11.27;;;17.20;99.90;;;;;;5076937;28;20209;-65
2022/10/18 09:13:48;;;;;;;15.30;10.20;;;17.20;99.90;;;;;;5098535;28;20601;-65
2022/10/18 09:16:21;;;;;;;26.93;10.83;;;17.30;99.90;;;;;;5097783;28;20271;-66
2022/10/18 09:18:58;;;;;;;21.73;10.07;;;17.40;99.90;;;;;;5097749;28;20187;-65
2022/10/18 09:21:39;;;;;;;21.23;10.43;;;17.40;99.90;;;;;;5097815;28;20217;-65
2022/10/18 09:24:12;;;;;;;21.67;9.17;;;17.50;99.90;;;;;;5097325;28;20184;-65
2022/10/18 09:26:45;;;;;;;16.40;9.40;;;17.70;99.90;;;;;;5097237;28;20546;-65
2022/10/18 09:29:40;;;;;;;18.23;8.17;;;17.80;99.90;;;;;;5097202;28;20368;-65
2022/10/18 09:32:22;;;;;;;18.13;8.40;;;17.90;99.90;;;;;;5097114;28;20213;-64
2022/10/18 09:34:55;;;;;;;16.50;8.40;;;18.00;99.90;;;;;;5096281;28;20176;-65
2022/10/18 09:37:29;;;;;;;19.77;7.93;;;18.10;99.90;;;;;;5097325;28;20676;-65
2022/10/18 09:40:06;;;;;;;19.87;9.20;;;18.20;99.90;;;;;;5097211;28;20215;-65
2022/10/18 09:42:39;;;;;;;19.47;8.10;;;18.40;99.90;;;;;;5096455;28;20209;-65
2022/10/18 09:45:22;;;;;;;19.30;7.93;;;18.40;99.90;;;;;;5095610;28;20187;-65
2022/10/18 09:48:01;;;;;;;16.20;7.10;;;18.50;99.90;;;;;;5096000;28;20228;-65
2022/10/18 09:50:35;;;;;;;19.40;7.60;;;18.60;99.90;;;;;;5096858;28;20183;-65
2022/10/18 09:53:12;;;;;;;23.33;8.43;;;18.60;99.90;;;;;;5097306;28;20197;-66
2022/10/18 09:55:54;;;;;;;22.60;8.43;;;18.70;99.90;;;;;;5097254;28;20265;-65
2022/10/18 09:58:27;;;;;;;16.13;7.97;;;18.70;99.90;;;;;;5096546;28;20231;-66
2022/10/18 10:00:56;;;;;;;21.33;8.00;;;18.80;99.90;;;;;;5096505;28;20242;-66
2022/10/18 10:04:01;;;;;;;24.77;9.13;;;18.90;99.90;;;;;;5096882;28;20178;-66
2022/10/18 10:06:33;;;;;;;22.47;8.47;;;19.00;99.90;;;;;;5095816;28;20195;-65
2022/10/18 10:09:14;;;;;;;18.43;8.57;;;18.90;99.90;;;;;;5096474;28;20191;-66
2022/10/18 10:11:46;;;;;;;21.90;7.93;;;18.80;99.90;;;;;;5096352;28;20186;-66
2022/10/18 10:14:16;;;;;;;18.50;7.40;;;18.60;99.90;;;;;;5096477;28;20211;-65
2022/10/18 10:16:51;;;;;;;16.27;6.80;;;18.60;99.90;;;;;;5096315;28;20253;-65
2022/10/18 10:19:24;;;;;;;21.93;7.13;;;18.80;99.90;;;;;;5094340;28;20541;-65
2022/10/18 10:21:57;;;;;;;22.40;8.57;;;19.00;99.90;;;;;;5096423;28;20232;-65
2022/10/18 10:24:43;;;;;;;19.10;8.00;;;19.10;99.90;;;;;;5078049;28;20194;-65
2022/10/18 10:27:20;;;;;;;20.70;9.07;;;19.20;99.90;;;;;;5096728;28;20179;-65
2022/10/18 10:29:56;;;;;;;18.93;8.83;;;19.10;99.90;;;;;;5094881;28;20200;-65
2022/10/18 10:32:31;;;;;;;18.63;9.47;;;19.10;99.90;;;;;;5094751;28;20192;-66
2022/10/18 10:34:59;;;;;;;23.93;10.57;;;19.10;99.90;;;;;;5094635;28;20191;-65
2022/10/18 10:37:32;;;;;;;24.73;12.23;;;19.30;99.90;;;;;;5096049;28;20192;-65
2022/10/18 10:40:17;;;;;;;22.03;11.73;;;19.40;99.90;;;;;;5096048;28;20196;-66
2022/10/18 10:43:02;;;;;;;24.87;12.43;;;19.50;99.90;;;;;;5095755;28;20195;-67
2022/10/18 10:46:03;;;;;;;20.87;11.73;;;19.50;99.90;;;;;;5095651;28;20222;-66
2022/10/18 10:48:34;;;;;;;20.80;11.40;;;19.60;99.90;;;;;;5096267;28;20187;-65
2022/10/18 10:51:07;;;;;;;21.10;11.33;;;19.70;99.90;;;;;;5094437;28;20183;-66
2022/10/18 10:53:45;;;;;;;19.73;10.93;;;19.80;99.90;;;;;;5094337;28;20187;-66
2022/10/18 10:56:25;;;;;;;16.53;9.57;;;19.90;99.90;;;;;;5095813;28;20188;-66
2022/10/18 10:58:55;;;;;;;20.27;9.83;;;20.00;99.90;;;;;;5095535;28;20184;-66
2022/10/18 11:01:30;;;;;;;13.70;6.17;;;20.10;99.90;;;;;;5094175;28;20204;-66
2022/10/18 11:04:00;;;;;;;13.70;6.10;;;20.20;99.90;;;;;;5096028;28;20215;-66
2022/10/18 11:07:07;;;;;;;14.60;6.70;;;20.40;99.90;;;;;;5095300;28;20291;-65
2022/10/18 11:09:48;;;;;;;17.83;8.30;;;20.50;99.90;;;;;;5093210;28;20220;-66
2022/10/18 11:12:32;;;;;;;19.03;8.10;;;20.60;99.90;;;;;;5095519;28;20176;-65
2022/10/18 11:15:18;;;;;;;17.83;8.13;;;20.60;99.90;;;;;;5095670;28;20240;-66
2022/10/18 11:17:59;;;;;;;15.93;8.07;;;20.90;99.90;;;;;;5095860;28;20208;-66
2022/10/18 11:20:32;;;;;;;17.53;6.90;;;20.90;99.90;;;;;;5093997;28;20188;-66
2022/10/18 11:23:03;;;;;;;17.23;6.87;;;20.90;99.90;;;;;;5076881;28;20178;-66
2022/10/18 11:26:05;;;;;;;14.20;6.07;;;21.00;99.90;;;;;;5094308;28;20201;-66
2022/10/18 11:33:22;;;;;;;17.00;6.30;;;20.90;99.90;;;;;;5094909;28;20159;-66
2022/10/18 11:36:17;;;;;;;19.50;7.47;;;21.00;99.90;;;;;;5094750;28;20198;-66
2022/10/18 11:38:55;;;;;;;14.80;6.53;;;21.10;99.90;;;;;;5094980;28;20606;-66
2022/10/18 11:41:38;;;;;;;17.03;6.77;;;21.10;99.90;;;;;;5094880;28;20213;-66
2022/10/18 11:44:19;;;;;;;16.87;6.67;;;21.20;99.90;;;;;;5093354;28;20186;-66
2022/10/18 11:46:59;;;;;;;16.47;7.03;;;21.00;99.90;;;;;;5094598;28;20544;-66
2022/10/18 11:49:40;;;;;;;16.50;6.57;;;21.00;99.90;;;;;;5095120;28;20190;-65
2022/10/18 11:52:19;;;;;;;12.80;6.00;;;20.80;99.90;;;;;;5093488;28;20544;-67
2022/10/18 11:55:03;;;;;;;17.37;6.23;;;20.80;99.90;;;;;;5095244;28;20198;-66
2022/10/18 11:57:50;;;;;;;19.57;6.73;;;21.00;99.90;;;;;;5093045;28;20229;-66
2022/10/18 12:00:38;;;;;;;14.27;6.17;;;21.20;99.90;;;;;;5094594;28;20651;-67
2022/10/18 12:03:21;;;;;;;15.83;6.50;;;21.40;99.90;;;;;;5095030;28;20190;-65
2022/10/18 12:05:53;;;;;;;16.57;5.53;;;21.40;99.90;;;;;;5094692;28;20205;-66
2022/10/18 12:08:25;;;;;;;11.87;5.57;;;21.50;99.90;;;;;;5094735;28;20190;-65
2022/10/18 12:10:56;;;;;;;16.53;5.23;;;21.60;99.90;;;;;;5094124;28;20547;-65
2022/10/18 12:17:55;;;;;;;8.50;4.57;;;21.80;99.90;;;;;;5094015;28;20706;-66
2022/10/18 12:20:30;;;;;;;13.63;4.77;;;22.00;99.90;;;;;;5092686;28;20194;-65
2022/10/18 12:23:04;;;;;;;19.47;5.27;;;22.20;99.90;;;;;;5094367;28;20204;-66
2022/10/18 12:25:35;;;;;;;10.47;4.00;;;22.30;99.90;;;;;;5093885;28;20194;-66
2022/10/18 12:28:13;;;;;;;9.07;3.23;;;22.30;99.90;;;;;;5092602;28;20287;-66
2022/10/18 12:30:48;;;;;;;8.77;3.37;;;22.40;99.90;;;;;;5094105;28;20210;-66
2022/10/18 12:33:22;;;;;;;9.23;2.97;;;22.50;99.90;;;;;;5092548;28;20433;-65
2022/10/18 12:36:05;;;;;;;9.40;2.80;;;22.40;99.90;;;;;;5093983;28;20190;-65
2022/10/18 12:38:37;;;;;;;9.70;2.77;;;22.40;99.90;;;;;;5093696;28;20187;-65
2022/10/18 12:41:06;;;;;;;11.87;3.50;;;22.50;99.90;;;;;;5093833;28;20249;-65
2022/10/18 12:43:36;;;;;;;12.53;3.23;;;22.50;99.90;;;;;;5092031;28;20187;-66
2022/10/18 12:46:06;;;;;;;8.83;3.57;;;22.50;99.90;;;;;;5093563;28;20557;-65
2022/10/18 12:48:45;;;;;;;11.40;2.80;;;22.40;99.90;;;;;;5093612;28;20219;-65
2022/10/18 12:51:15;;;;;;;8.37;3.13;;;22.40;99.90;;;;;;5082661;28;20189;-65
2022/10/18 12:53:47;;;;;;;10.27;3.10;;;22.30;99.90;;;;;;5039017;28;20190;-65
2022/10/18 12:56:36;;;;;;;9.50;2.87;;;22.30;99.90;;;;;;5073620;28;20190;-65
2022/10/18 12:59:53;;;;;;;11.57;3.40;;;22.40;99.90;;;;;;5073250;28;20663;-65
2022/10/18 13:02:31;;;;;;;7.87;2.57;;;22.50;99.90;;;;;;5073314;28;20207;-64
2022/10/18 13:05:01;;;;;;;9.63;2.80;;;22.50;99.90;;;;;;5073223;28;20557;-64
2022/10/18 13:07:42;;;;;;;8.90;2.47;;;22.40;99.90;;;;;;5072254;28;20207;-64
2022/10/18 13:10:36;;;;;;;8.80;2.83;;;22.50;99.90;;;;;;5073129;28;20195;-65
2022/10/18 13:13:42;;;;;;;11.07;3.57;;;22.40;99.90;;;;;;5069643;28;20640;-65
2022/10/18 13:16:38;;;;;;;14.60;3.20;;;22.30;99.90;;;;;;5073257;28;20197;-65
2022/10/18 13:19:21;;;;;;;9.63;2.97;;;22.30;99.90;;;;;;5073341;28;20201;-65